createdAt,value
2019-05-28T00:00:23.932Z,100.00
2019-05-28T00:02:55.651Z,100.00
2019-05-28T00:05:27.451Z,100.00
2019-05-28T00:07:59.032Z,100.00
2019-05-28T00:10:30.564Z,100.00
2019-05-28T00:13:02.541Z,100.00
2019-05-28T00:15:34.488Z,100.00
2019-05-28T00:18:06.049Z,100.00
2019-05-28T00:20:37.834Z,100.00
2019-05-28T00:23:09.375Z,100.00
2019-05-28T00:25:41.168Z,100.00
2019-05-28T00:28:13.113Z,100.00
2019-05-28T00:30:45.168Z,100.00
2019-05-28T00:33:16.835Z,100.00
2019-05-28T00:35:48.302Z,100.00
2019-05-28T00:38:20.221Z,100.00
2019-05-28T00:40:52.236Z,100.00
2019-05-28T00:43:25.061Z,100.00
2019-05-28T00:45:56.866Z,100.00
2019-05-28T00:48:29.392Z,100.00
2019-05-28T00:51:01.024Z,100.00
2019-05-28T00:53:32.647Z,100.00
2019-05-28T00:56:04.851Z,100.00
2019-05-28T00:58:37.708Z,100.00
2019-05-28T01:01:09.497Z,100.00
2019-05-28T01:03:41.059Z,100.00
2019-05-28T01:06:12.591Z,100.00
2019-05-28T01:08:44.294Z,100.00
2019-05-28T01:11:15.807Z,100.00
2019-05-28T01:13:47.707Z,100.00
2019-05-28T01:16:19.352Z,100.00
2019-05-28T01:18:50.882Z,100.00
2019-05-28T01:21:22.665Z,100.00
2019-05-28T01:23:54.612Z,100.00
2019-05-28T01:26:26.171Z,100.00
2019-05-28T01:28:57.875Z,100.00
2019-05-28T01:31:29.397Z,100.00
2019-05-28T01:34:00.973Z,100.00
2019-05-28T01:36:32.546Z,100.00
2019-05-28T01:39:05.019Z,100.00
2019-05-28T01:41:36.650Z,100.00
2019-05-28T01:44:08.213Z,100.00
2019-05-28T01:46:39.773Z,100.00
2019-05-28T01:49:11.339Z,100.00
2019-05-28T01:51:43.556Z,100.00
2019-05-28T01:54:15.109Z,100.00
2019-05-28T01:56:46.982Z,100.00
2019-05-28T01:59:18.590Z,100.00
2019-05-28T02:01:50.423Z,100.00
2019-05-28T02:04:21.972Z,100.00
2019-05-28T02:06:53.829Z,100.00
2019-05-28T02:09:25.386Z,100.00
2019-05-28T02:11:56.930Z,100.00
2019-05-28T02:14:28.565Z,100.00
2019-05-28T02:17:00.124Z,100.00
2019-05-28T02:19:32.092Z,100.00
2019-05-28T02:22:03.619Z,100.00
2019-05-28T02:24:35.182Z,100.00
2019-05-28T02:27:06.894Z,100.00
2019-05-28T02:29:38.817Z,100.00
2019-05-28T02:32:10.451Z,100.00
2019-05-28T02:34:42.021Z,100.00
2019-05-28T02:37:13.845Z,100.00
2019-05-28T02:39:45.936Z,100.00
2019-05-28T02:42:17.496Z,100.00
2019-05-28T02:44:49.321Z,100.00
2019-05-28T02:47:21.197Z,100.00
2019-05-28T02:49:53.041Z,100.00
2019-05-28T02:52:26.301Z,100.00
2019-05-28T02:54:57.891Z,100.00
2019-05-28T02:57:32.457Z,100.00
2019-05-28T03:00:05.863Z,100.00
2019-05-28T03:02:39.385Z,100.00
2019-05-28T03:05:11.888Z,100.00
2019-05-28T03:07:47.391Z,100.00
2019-05-28T03:10:59.599Z,100.00
2019-05-28T03:13:07.742Z,100.00
2019-05-28T03:15:43.616Z,100.00
2019-05-28T03:18:18.125Z,100.00
2019-05-28T03:20:51.962Z,100.00
2019-05-28T03:23:26.327Z,100.00
2019-05-28T03:25:58.918Z,100.00
2019-05-28T03:28:30.649Z,100.00
2019-05-28T03:31:02.328Z,100.00
2019-05-28T03:33:33.861Z,100.00
2019-05-28T03:36:08.742Z,100.00
2019-05-28T03:38:42.143Z,100.00
2019-05-28T03:41:13.760Z,100.00
2019-05-28T03:43:45.369Z,100.00
2019-05-28T03:46:16.935Z,100.00
2019-05-28T03:48:48.824Z,100.00
2019-05-28T03:51:20.456Z,100.00
2019-05-28T03:53:52.022Z,100.00
2019-05-28T03:56:23.562Z,100.00
2019-05-28T03:58:55.493Z,100.00
2019-05-28T04:01:27.047Z,100.00
2019-05-28T04:03:58.614Z,100.00
2019-05-28T04:06:30.160Z,100.00
2019-05-28T04:09:01.681Z,100.00
2019-05-28T04:11:44.383Z,100.00
2019-05-28T04:14:06.824Z,100.00
2019-05-28T04:16:38.622Z,100.00
2019-05-28T04:19:10.166Z,100.00
2019-05-28T04:21:41.828Z,100.00
2019-05-28T04:24:15.633Z,100.00
2019-05-28T04:26:47.401Z,100.00
2019-05-28T04:29:19.359Z,100.00
2019-05-28T04:31:50.854Z,100.00
2019-05-28T04:34:22.535Z,100.00
2019-05-28T04:36:54.408Z,100.00
2019-05-28T04:39:26.115Z,100.00
2019-05-28T04:41:57.954Z,100.00
2019-05-28T04:44:29.724Z,100.00
2019-05-28T04:47:01.318Z,100.00
2019-05-28T04:49:33.917Z,100.00
2019-05-28T04:52:06.237Z,100.00
2019-05-28T04:54:37.760Z,100.00
2019-05-28T04:57:09.350Z,100.00
2019-05-28T04:59:41.267Z,100.00
2019-05-28T05:02:12.843Z,98.81
2019-05-28T05:04:44.477Z,98.48
2019-05-28T05:07:16.336Z,98.35
2019-05-28T05:09:48.219Z,97.15
2019-05-28T05:12:19.818Z,98.40
2019-05-28T05:14:51.405Z,97.22
2019-05-28T05:17:23.150Z,98.13
2019-05-28T05:19:54.686Z,98.37
2019-05-28T05:22:26.531Z,96.58
2019-05-28T05:24:58.451Z,96.77
2019-05-28T05:27:30.301Z,96.57
2019-05-28T05:30:01.976Z,95.65
2019-05-28T05:32:33.602Z,94.68
2019-05-28T05:35:05.283Z,93.79
2019-05-28T05:37:36.937Z,95.09
2019-05-28T05:40:10.178Z,94.74
2019-05-28T05:42:42.711Z,94.59
2019-05-28T05:45:15.181Z,95.06
2019-05-28T05:47:46.750Z,94.67
2019-05-28T05:50:19.627Z,93.22
2019-05-28T05:52:51.326Z,93.98
2019-05-28T05:55:23.289Z,95.01
2019-05-28T05:57:55.333Z,94.24
2019-05-28T06:00:27.350Z,93.89
2019-05-28T06:02:59.162Z,93.30
2019-05-28T06:05:30.727Z,92.28
2019-05-28T06:08:02.643Z,93.80
2019-05-28T06:10:34.255Z,92.33
2019-05-28T06:13:06.692Z,90.41
2019-05-28T06:15:39.408Z,91.85
2019-05-28T06:18:10.959Z,92.45
2019-05-28T06:20:42.995Z,92.07
2019-05-28T06:23:14.685Z,91.25
2019-05-28T06:25:46.323Z,91.24
2019-05-28T06:28:18.211Z,90.08
2019-05-28T06:30:50.215Z,89.92
2019-05-28T06:33:21.949Z,88.81
2019-05-28T06:35:53.944Z,87.57
2019-05-28T06:38:25.932Z,87.38
2019-05-28T06:40:57.789Z,86.51
2019-05-28T06:43:29.663Z,85.59
2019-05-28T06:46:01.206Z,85.83
2019-05-28T06:48:32.770Z,86.33
2019-05-28T06:51:04.736Z,84.93
2019-05-28T06:53:36.292Z,83.42
2019-05-28T06:56:07.912Z,83.31
2019-05-28T06:58:40.519Z,84.48
2019-05-28T07:01:12.616Z,83.91
2019-05-28T07:03:44.173Z,84.32
2019-05-28T07:06:15.765Z,81.74
2019-05-28T07:08:47.335Z,82.25
2019-05-28T07:11:19.201Z,82.68
2019-05-28T07:13:50.778Z,82.52
2019-05-28T07:16:23.807Z,81.25
2019-05-28T07:18:55.315Z,81.72
2019-05-28T07:21:26.852Z,80.73
2019-05-28T07:23:58.431Z,80.58
2019-05-28T07:26:30.014Z,79.51
2019-05-28T07:29:01.565Z,80.72
2019-05-28T07:31:33.116Z,79.19
2019-05-28T07:34:04.680Z,79.14
2019-05-28T07:36:36.198Z,76.84
2019-05-28T07:39:12.137Z,77.37
2019-05-28T07:41:42.524Z,79.16
2019-05-28T07:44:14.104Z,76.31
2019-05-28T07:46:45.655Z,74.08
2019-05-28T07:49:17.193Z,76.30
2019-05-28T07:51:48.719Z,74.33
2019-05-28T07:54:20.273Z,73.86
2019-05-28T07:56:52.190Z,72.10
2019-05-28T07:59:23.715Z,69.86
2019-05-28T08:01:55.420Z,70.29
2019-05-28T08:04:27.044Z,68.74
2019-05-28T08:06:58.562Z,71.68
2019-05-28T08:09:30.139Z,70.77
2019-05-28T08:12:02.165Z,70.96
2019-05-28T08:14:33.708Z,69.61
2019-05-28T08:17:05.259Z,70.40
2019-05-28T08:19:36.948Z,68.22
2019-05-28T08:22:08.958Z,68.93
2019-05-28T08:24:40.548Z,69.12
2019-05-28T08:27:12.388Z,69.85
2019-05-28T08:29:45.720Z,69.63
2019-05-28T08:32:18.040Z,69.53
2019-05-28T08:35:04.208Z,70.09
2019-05-28T08:37:22.792Z,67.82
2019-05-28T08:39:54.939Z,68.83
2019-05-28T08:42:26.479Z,67.90
2019-05-28T08:44:57.997Z,68.12
2019-05-28T08:47:29.876Z,67.53
2019-05-28T08:50:01.550Z,67.19
2019-05-28T08:52:33.118Z,67.23
2019-05-28T08:55:05.156Z,67.67
2019-05-28T08:57:37.287Z,68.34
2019-05-28T09:00:11.628Z,70.43
2019-05-28T09:02:44.129Z,68.51
2019-05-28T09:05:26.048Z,68.67
2019-05-28T09:07:49.524Z,67.54
2019-05-28T09:10:21.187Z,68.02
2019-05-28T09:12:53.090Z,68.53
2019-05-28T09:15:24.618Z,67.51
2019-05-28T09:17:56.184Z,68.24
2019-05-28T09:20:28.013Z,68.58
2019-05-28T09:22:59.701Z,70.13
2019-05-28T09:25:31.389Z,69.38
2019-05-28T09:28:03.086Z,70.33
2019-05-28T09:30:34.826Z,69.39
2019-05-28T09:33:06.419Z,67.11
2019-05-28T09:35:44.422Z,68.67
2019-05-28T09:38:11.256Z,69.18
2019-05-28T09:40:49.780Z,71.29
2019-05-28T09:43:17.115Z,73.31
2019-05-28T09:45:49.089Z,75.37
2019-05-28T09:48:21.371Z,74.09
2019-05-28T09:50:54.910Z,75.15
2019-05-28T09:53:27.798Z,75.54
2019-05-28T09:56:01.346Z,78.12
2019-05-28T09:58:35.108Z,76.39
2019-05-28T10:01:07.077Z,77.61
2019-05-28T10:03:38.873Z,77.48
2019-05-28T10:06:17.092Z,73.81
2019-05-28T10:08:45.228Z,74.52
2019-05-28T10:11:16.953Z,76.26
2019-05-28T10:13:49.385Z,74.82
2019-05-28T10:16:21.994Z,74.23
2019-05-28T10:18:55.743Z,73.92
2019-05-28T10:21:27.317Z,73.29
2019-05-28T10:23:59.024Z,70.14
2019-05-28T10:26:30.767Z,70.86
2019-05-28T10:29:02.311Z,70.98
2019-05-28T10:31:35.079Z,68.52
2019-05-28T10:34:07.086Z,65.60
2019-05-28T10:36:39.650Z,66.32
2019-05-28T10:39:12.543Z,66.93
2019-05-28T10:41:46.711Z,63.76
2019-05-28T10:44:20.131Z,64.60
2019-05-28T10:46:52.575Z,65.31
2019-05-28T10:49:26.248Z,64.11
2019-05-28T10:52:00.085Z,64.62
2019-05-28T10:54:32.465Z,62.65
2019-05-28T10:57:05.555Z,63.59
2019-05-28T10:59:37.784Z,61.51
2019-05-28T11:02:11.201Z,56.89
2019-05-28T11:04:43.105Z,58.60
2019-05-28T11:07:14.756Z,57.71
2019-05-28T11:09:46.227Z,56.31
2019-05-28T11:12:17.846Z,58.20
2019-05-28T11:14:49.461Z,57.66
2019-05-28T11:17:21.024Z,56.59
2019-05-28T11:19:52.538Z,54.98
2019-05-28T11:22:24.232Z,55.06
2019-05-28T11:24:55.678Z,57.56
2019-05-28T11:27:27.196Z,60.99
2019-05-28T11:29:58.743Z,60.63
2019-05-28T11:32:30.400Z,59.49
2019-05-28T11:35:01.942Z,60.36
2019-05-28T11:37:33.551Z,59.81
2019-05-28T11:40:06.236Z,62.13
2019-05-28T11:42:37.765Z,61.82
2019-05-28T11:45:13.409Z,59.54
2019-05-28T11:47:45.593Z,61.26
2019-05-28T11:50:17.495Z,60.76
2019-05-28T11:52:49.083Z,57.89
2019-05-28T11:55:21.149Z,57.57
2019-05-28T11:57:52.677Z,58.88
2019-05-28T12:00:25.560Z,56.64
2019-05-28T12:02:57.246Z,56.45
2019-05-28T12:05:29.220Z,58.21
2019-05-28T12:08:00.771Z,57.70
2019-05-28T12:10:33.469Z,57.67
2019-05-28T12:13:05.788Z,57.93
2019-05-28T12:15:37.360Z,58.09
2019-05-28T12:18:08.867Z,58.68
2019-05-28T12:20:40.426Z,59.48
2019-05-28T12:23:12.400Z,57.39
2019-05-28T12:25:44.092Z,57.18
2019-05-28T12:28:15.670Z,58.26
2019-05-28T12:30:47.396Z,56.25
2019-05-28T12:33:19.351Z,55.68
2019-05-28T12:35:50.950Z,57.38
2019-05-28T12:38:23.691Z,56.93
2019-05-28T12:40:55.545Z,56.44
2019-05-28T12:43:27.393Z,56.48
2019-05-28T12:45:58.889Z,55.55
2019-05-28T12:48:30.450Z,52.94
2019-05-28T12:51:02.584Z,53.65
2019-05-28T12:53:49.239Z,53.52
2019-05-28T12:56:07.594Z,53.21
2019-05-28T12:58:42.804Z,53.44
2019-05-28T13:01:12.445Z,54.33
2019-05-28T13:03:44.426Z,52.98
2019-05-28T13:06:15.953Z,52.43
2019-05-28T13:08:47.498Z,52.14
2019-05-28T13:11:20.240Z,56.60
2019-05-28T13:13:51.837Z,57.39
2019-05-28T13:16:24.939Z,59.97
2019-05-28T13:18:56.563Z,60.99
2019-05-28T13:21:28.145Z,62.42
2019-05-28T13:24:00.065Z,61.84
2019-05-28T13:26:31.888Z,62.50
2019-05-28T13:29:03.448Z,63.23
2019-05-28T13:31:35.330Z,65.82
2019-05-28T13:34:07.191Z,67.44
2019-05-28T13:36:38.752Z,66.10
2019-05-28T13:39:10.518Z,67.64
2019-05-28T13:41:42.040Z,66.81
2019-05-28T13:44:14.416Z,71.67
2019-05-28T13:46:46.122Z,73.85
2019-05-28T13:49:17.725Z,76.40
2019-05-28T13:51:52.738Z,81.67
2019-05-28T13:54:22.604Z,83.65
2019-05-28T13:56:54.214Z,84.62
2019-05-28T13:59:25.750Z,90.94
2019-05-28T14:01:57.601Z,90.02
2019-05-28T14:04:29.527Z,86.98
2019-05-28T14:07:01.043Z,88.51
2019-05-28T14:09:32.577Z,87.78
2019-05-28T14:12:04.240Z,89.63
2019-05-28T14:14:35.762Z,90.76
2019-05-28T14:17:07.296Z,89.91
2019-05-28T14:19:38.908Z,89.19
2019-05-28T14:22:10.433Z,91.95
2019-05-28T14:24:42.326Z,88.58
2019-05-28T14:27:14.928Z,89.37
2019-05-28T14:29:46.382Z,89.67
2019-05-28T14:32:18.091Z,89.57
2019-05-28T14:34:52.393Z,89.09
2019-05-28T14:37:22.893Z,88.00
2019-05-28T14:39:54.906Z,88.66
2019-05-28T14:42:26.531Z,87.04
2019-05-28T14:44:58.101Z,87.36
2019-05-28T14:47:29.717Z,87.49
2019-05-28T14:50:01.422Z,87.24
2019-05-28T14:52:33.010Z,86.34
2019-05-28T14:55:04.867Z,85.66
2019-05-28T14:57:36.822Z,86.89
2019-05-28T15:00:09.757Z,87.59
2019-05-28T15:02:41.316Z,85.45
2019-05-28T15:05:13.834Z,86.69
2019-05-28T15:07:52.975Z,86.59
2019-05-28T15:10:32.933Z,85.65
2019-05-28T15:13:05.285Z,83.29
2019-05-28T15:15:36.807Z,85.02
2019-05-28T15:18:08.371Z,84.78
2019-05-28T15:20:40.235Z,83.08
2019-05-28T15:23:11.862Z,83.44
2019-05-28T15:25:43.676Z,81.61
2019-05-28T15:28:15.275Z,81.29
2019-05-28T15:30:47.917Z,80.37
2019-05-28T15:33:19.920Z,82.47
2019-05-28T15:35:51.788Z,82.62
2019-05-28T15:38:23.687Z,81.94
2019-05-28T15:40:55.228Z,78.37
2019-05-28T15:43:26.794Z,78.77
2019-05-28T15:45:58.356Z,78.64
2019-05-28T15:48:30.349Z,78.80
2019-05-28T15:51:01.937Z,79.93
2019-05-28T15:53:33.442Z,79.13
2019-05-28T15:56:05.859Z,77.48
2019-05-28T15:58:37.449Z,78.47
2019-05-28T16:01:09.202Z,78.42
2019-05-28T16:03:40.822Z,78.48
2019-05-28T16:06:12.507Z,75.90
2019-05-28T16:08:43.953Z,75.20
2019-05-28T16:11:16.203Z,75.93
2019-05-28T16:13:50.151Z,75.00
2019-05-28T16:16:21.738Z,75.19
2019-05-28T16:18:53.643Z,75.17
2019-05-28T16:21:25.556Z,75.57
2019-05-28T16:23:57.161Z,74.43
2019-05-28T16:26:30.698Z,74.32
2019-05-28T16:29:02.395Z,73.89
2019-05-28T16:31:34.047Z,74.97
2019-05-28T16:34:06.007Z,73.34
2019-05-28T16:36:37.674Z,72.60
2019-05-28T16:39:10.650Z,73.08
2019-05-28T16:41:42.235Z,72.37
2019-05-28T16:44:14.052Z,72.34
2019-05-28T16:46:45.616Z,71.58
2019-05-28T16:49:17.186Z,72.33
2019-05-28T16:51:48.910Z,70.80
2019-05-28T16:54:27.480Z,69.99
2019-05-28T16:56:59.100Z,71.43
2019-05-28T16:59:30.688Z,70.02
2019-05-28T17:02:02.292Z,70.45
2019-05-28T17:04:33.917Z,70.00
2019-05-28T17:07:06.399Z,69.91
2019-05-28T17:09:38.382Z,68.86
2019-05-28T17:12:09.996Z,67.44
2019-05-28T17:14:41.558Z,66.56
2019-05-28T17:17:13.361Z,67.06
2019-05-28T17:19:45.257Z,67.55
2019-05-28T17:22:16.924Z,65.69
2019-05-28T17:24:48.938Z,65.25
2019-05-28T17:27:20.508Z,67.16
2019-05-28T17:29:54.622Z,66.67
2019-05-28T17:32:26.203Z,65.52
2019-05-28T17:34:57.789Z,65.79
2019-05-28T17:37:29.345Z,65.91
2019-05-28T17:40:01.042Z,66.28
2019-05-28T17:42:32.808Z,66.20
2019-05-28T17:45:06.560Z,64.95
2019-05-28T17:47:43.285Z,67.13
2019-05-28T17:50:12.090Z,65.55
2019-05-28T17:52:44.013Z,66.95
2019-05-28T17:55:15.950Z,66.35
2019-05-28T17:57:47.575Z,67.28
2019-05-28T18:00:19.610Z,66.48
2019-05-28T18:02:51.339Z,67.45
2019-05-28T18:05:22.876Z,67.11
2019-05-28T18:07:54.444Z,68.00
2019-05-28T18:10:26.791Z,67.92
2019-05-28T18:12:58.428Z,68.53
2019-05-28T18:15:30.233Z,69.12
2019-05-28T18:18:01.782Z,68.05
2019-05-28T18:20:33.590Z,69.66
2019-05-28T18:23:05.233Z,69.58
2019-05-28T18:25:36.817Z,70.30
2019-05-28T18:28:08.626Z,71.52
2019-05-28T18:30:40.524Z,70.68
2019-05-28T18:33:12.057Z,71.53
2019-05-28T18:35:43.599Z,71.55
2019-05-28T18:38:15.934Z,72.52
2019-05-28T18:40:47.445Z,71.74
2019-05-28T18:43:19.422Z,71.37
2019-05-28T18:45:50.926Z,72.42
2019-05-28T18:48:22.461Z,72.20
2019-05-28T18:50:54.066Z,72.48
2019-05-28T18:53:25.950Z,72.05
2019-05-28T18:55:57.788Z,72.18
2019-05-28T18:58:29.952Z,73.39
2019-05-28T19:01:01.683Z,73.97
2019-05-28T19:03:33.320Z,73.03
2019-05-28T19:06:04.958Z,74.04
2019-05-28T19:08:36.875Z,73.94
2019-05-28T19:11:08.490Z,76.10
2019-05-28T19:13:40.349Z,77.71
2019-05-28T19:16:12.854Z,79.78
2019-05-28T19:18:44.509Z,81.80
2019-05-28T19:21:16.053Z,82.62
2019-05-28T19:23:47.657Z,83.69
2019-05-28T19:26:19.265Z,84.37
2019-05-28T19:28:51.012Z,87.40
2019-05-28T19:31:23.233Z,89.26
2019-05-28T19:33:55.035Z,90.71
2019-05-28T19:36:26.735Z,89.71
2019-05-28T19:38:59.958Z,89.53
2019-05-28T19:41:32.757Z,89.13
2019-05-28T19:44:04.499Z,89.13
2019-05-28T19:46:35.992Z,89.80
2019-05-28T19:49:07.660Z,90.08
2019-05-28T19:51:39.276Z,90.16
2019-05-28T19:54:10.889Z,90.33
2019-05-28T19:56:43.530Z,90.93
2019-05-28T19:59:15.119Z,90.57
2019-05-28T20:01:46.756Z,91.01
2019-05-28T20:04:19.535Z,90.97
2019-05-28T20:06:51.180Z,91.30
2019-05-28T20:09:23.757Z,91.16
2019-05-28T20:12:11.115Z,90.19
2019-05-28T20:14:29.366Z,89.14
2019-05-28T20:17:00.876Z,88.76
2019-05-28T20:19:35.201Z,88.46
2019-05-28T20:22:05.653Z,89.55
2019-05-28T20:24:37.475Z,90.39
2019-05-28T20:27:09.550Z,88.81
2019-05-28T20:29:41.200Z,87.78
2019-05-28T20:32:14.269Z,88.48
2019-05-28T20:34:46.225Z,86.74
2019-05-28T20:37:17.924Z,87.54
2019-05-28T20:39:49.741Z,87.26
2019-05-28T20:42:27.237Z,87.13
2019-05-28T20:44:54.759Z,88.51
2019-05-28T20:47:26.272Z,85.71
2019-05-28T20:49:57.902Z,85.25
2019-05-28T20:52:29.539Z,84.87
2019-05-28T20:55:07.807Z,83.36
2019-05-28T20:57:40.550Z,84.10
2019-05-28T21:00:13.520Z,84.78
2019-05-28T21:02:45.495Z,85.35
2019-05-28T21:05:16.987Z,86.85
2019-05-28T21:07:50.179Z,87.80
2019-05-28T21:10:21.842Z,87.94
2019-05-28T21:12:54.850Z,89.57
2019-05-28T21:15:26.561Z,88.25
2019-05-28T21:17:59.500Z,87.81
2019-05-28T21:20:31.907Z,87.01
2019-05-28T21:23:03.376Z,86.91
2019-05-28T21:25:34.891Z,88.93
2019-05-28T21:28:07.627Z,88.44
2019-05-28T21:30:39.121Z,86.36
2019-05-28T21:33:10.704Z,86.28
2019-05-28T21:35:42.846Z,86.29
2019-05-28T21:38:16.128Z,84.27
2019-05-28T21:40:47.797Z,84.65
2019-05-28T21:43:19.703Z,85.20
2019-05-28T21:45:51.997Z,86.01
2019-05-28T21:48:23.550Z,86.67
2019-05-28T21:50:56.589Z,86.86
2019-05-28T21:53:28.347Z,87.04
2019-05-28T21:55:59.912Z,87.08
2019-05-28T21:58:31.411Z,88.18
2019-05-28T22:01:08.515Z,88.50
2019-05-28T22:03:40.885Z,89.01
2019-05-28T22:06:12.452Z,90.15
2019-05-28T22:08:44.026Z,90.59
2019-05-28T22:11:15.532Z,91.51
2019-05-28T22:13:47.041Z,91.96
2019-05-28T22:16:19.568Z,92.47
2019-05-28T22:18:51.350Z,92.28
2019-05-28T22:21:23.051Z,91.73
2019-05-28T22:23:56.323Z,90.81
2019-05-28T22:26:28.825Z,90.02
2019-05-28T22:29:01.620Z,90.38
2019-05-28T22:31:33.407Z,91.33
2019-05-28T22:34:05.299Z,91.37
2019-05-28T22:36:38.123Z,91.10
2019-05-28T22:39:10.266Z,91.25
2019-05-28T22:41:43.470Z,91.61
2019-05-28T22:44:16.236Z,91.82
2019-05-28T22:46:48.316Z,91.65
2019-05-28T22:49:19.883Z,91.81
2019-05-28T22:51:51.513Z,91.07
2019-05-28T22:54:23.001Z,91.07
2019-05-28T22:56:55.081Z,92.38
2019-05-28T22:59:26.623Z,92.40
2019-05-28T23:01:58.751Z,92.10
2019-05-28T23:04:31.289Z,91.76
2019-05-28T23:07:03.310Z,92.33
2019-05-28T23:09:35.281Z,91.86
2019-05-28T23:12:08.156Z,92.21
2019-05-28T23:14:39.824Z,91.63
2019-05-28T23:17:11.660Z,90.87
2019-05-28T23:19:43.553Z,91.14
2019-05-28T23:22:15.514Z,90.26
2019-05-28T23:24:47.057Z,90.79
2019-05-28T23:27:18.634Z,90.43
2019-05-28T23:29:50.476Z,90.83
2019-05-28T23:32:22.228Z,90.32
2019-05-28T23:34:56.306Z,90.26
2019-05-28T23:37:27.372Z,88.73
2019-05-28T23:39:58.857Z,88.29
2019-05-28T23:42:30.672Z,88.48
2019-05-28T23:45:03.516Z,88.69
2019-05-28T23:47:35.164Z,88.26
2019-05-28T23:50:08.861Z,88.65
2019-05-28T23:52:41.392Z,87.96
2019-05-28T23:55:13.861Z,88.61
2019-05-28T23:57:45.733Z,88.84
